Portada
METAR-TAF:

METAR-TAF

Aeropuertos :

Aeropuerto Internacional de Taskent

Taskent, Uzbekistán

latitud: 41-16N, longitud: 069-16E, altitud: 489 m

Observación

El informe se hizo hace 30 minutos, a las 08:30 UTC
Viento 6 kt del oeste, variando entre suroeste y oeste-noroeste
Temperatura 26°C
Humedad 28%
Presión 1017 hPa
Visibilidad 10 km o más
sin nubes por debajo de 1500 m y sin presencia de cumulonimbus.

METAR: UTTT 240830Z 27006KT 230V300 CAVOK 26/06 Q1017 R26R/CLRD70 NOSIG

Hora: 14:00 (09:00 UTC)

Pronóstico

El informe se hizo hace 4 horas y 0 minutos, a las 05:00 UTC
Pronóstico válido del 24 a las 06 UTC al 25 a las 06 UTC
Viento 10 kt del oeste-suroeste
Visibilidad: 7000 m
Escasas nubes a una altura de 6000 ft, Cumulonimbus.
Cielo nuboso a una altura de 10000 ft
Temporalmente
del 24 a las 06 UTC al 24 a las 15 UTC
Viento 10 kt del norte-noroeste con ráfagas de 20 kt

TAF: UTTT 240500Z 2406/2506 24010KT 7000 FEW060CB BKN100 TEMPO 2406/2415 34010G20KT

Observaciones y pronósticos meteorológicos de más de 4000 aeropuertos (mensajes METAR y TAF).

Los puntos amarillos y rojos representan las estaciones disponibles.

Ponga el ratón en el punto deseado para ver el nombre de la estación.

Haga clic para ver las observaciones y los pronósticos meteorológicos.

Para cambiar el mapa : haga clic en los botones verdes con una cruz de color negro para hacer un zoom, en el botón verde con un guión para alejar o en las flechas verdes para mapas adyacentes.


METAR-TAF: